Terminal Aerodrome Forecast
Issued by NWS Northern Indiana

Home | Current Version | Previous Version | Text Only | Print | Product List | Glossary On
Versions: 1 2 3 4 5 6 7 8 9 10 11 12 13 14 15 16 17
000
FTUS43 KIWX 021100
TAFFWA
TAF
KFWA 021121Z 0212/0312 24008KT 6SM -RA BR SCT035 OVC070
     FM021500 27008KT P6SM SCT035
     FM030100 28003KT P6SM SCT250
     FM030900 VRB02KT 4SM BR SKC
      TEMPO 0310/0312 1SM BR=

USA.gov is the U.S. government's official web portal to all federal, state and local government web resources and services.